Flight Track Log - Related Links

Times and Time Zones

All times are in EDT time to prevent confusion due to time zone crossing. See the N475DA flight status page for this flight to view local times or setup timezone preferences in your user account.


Time Position Orientation Groundspeed Altitude Reporting Facility
EDT Latitude Longitude Course Direction KTS MPH feet Rate Location/Type
Wed 05:48:34 PM 28.7833 -81.2667 300° West 107 123 600  Level Orlando TRACON
Wed 05:49:53 PM 28.8000 -81.3000 300° West 94 108 1,500 691 Climbing Orlando TRACON
Wed 05:50:53 PM 28.8333 -81.3167 336° Northwest 108 124 2,200 632 Climbing Orlando TRACON
Wed 05:51:47 PM 28.8500 -81.2833 60° Northeast 116 133 2,700 289 Climbing Orlando TRACON
Wed 05:53:39 PM 28.8672 -81.2189 73° East 126 145 3,000 67 Climbing Jacksonville Center
Wed 05:54:46 PM 28.8878 -81.1781 60° Northeast 139 160 2,900 -47 Descending Jacksonville Center
Wed 05:55:48 PM 28.9081 -81.1444 55° Northeast 140 161 2,900 -55 Level Jacksonville Center
Wed 05:56:36 PM 28.9244 -81.1133 59° Northeast 128 147 2,800 50 Descending Jacksonville Center
Wed 05:57:49 PM 28.9447 -81.0728 60° Northeast 124 143 3,000 45 Climbing Jacksonville Center
Wed 05:58:50 PM 28.9781 -81.0650 12° North 126 145 2,900 -295 Descending Jacksonville Center
Wed 05:59:51 PM 29.0133 -81.0619 North 125 144 2,400 -491 Descending Jacksonville Center
Wed 06:00:40 PM 29.0386 -81.0664 351° North 115 132 2,000 -246 Descending Jacksonville Center
Wed 06:01:53 PM 29.0494 -81.1039 288° West 100 115 1,900 -224 Descending Jacksonville Center
Wed 06:02:54 PM 29.0583 -81.1372 287° West 110 127 1,500 -209 Descending Jacksonville Center
Wed 06:03:48 PM 29.0650 -81.1656 285° West 100 115 1,500 55 Level Jacksonville Center
Wed 06:04:43 PM 29.0694 -81.1939 280° West 99 114 1,600  Climbing Jacksonville Center
Wed 06:05:44 PM 29.0864 -81.2197 307° West 108 124 1,500 -47 Descending Jacksonville Center
Wed 06:06:51 PM 29.1156 -81.2144 North 118 136 1,500  Level Jacksonville Center
Wed 06:07:46 PM 29.1297 -81.1811 64° Northeast 121 139 1,500 -103 Level Jacksonville Center
Wed 06:08:47 PM 29.1461 -81.1475 61° Northeast 113 130 1,300 -443 Descending Jacksonville Center
Wed 06:09:48 PM 29.1581 -81.1139 68° East 110 127 600 -397 Descending Jacksonville Center
Wed 06:10:48 PM 29.1703 -81.0828 66° East 110 127 500 298 Descending Jacksonville Center
Wed 06:11:49 PM 29.1822 -81.0542 64° Northeast 112 129 1,200 639 Climbing Jacksonville Center
Wed 06:12:50 PM 29.1775 -81.0089 97° East 127 146 1,800 344 Climbing Jacksonville Center
Wed 06:13:51 PM 29.1503 -81.0047 172° South 113 130 1,900 103 Climbing Jacksonville Center
Wed 06:14:46 PM 29.1233 -81.0100 190° South 111 128 2,000 49 Climbing Jacksonville Center
Wed 06:15:53 PM 29.1069 -81.0411 239° Southwest 108 124 2,000 -47 Level Jacksonville Center
Wed 06:16:54 PM 29.0908 -81.0725 240° Southwest 113 130 1,900  Descending Jacksonville Center
Wed 06:17:54 PM 29.0767 -81.1011 240° Southwest 106 122 2,000  Climbing Jacksonville Center
Wed 06:18:55 PM 29.0728 -81.1344 262° West 104 120 1,900 -49 Descending Jacksonville Center
Wed 06:19:56 PM 29.0817 -81.1653 288° West 98 113 1,900  Level Jacksonville Center
Wed 06:20:51 PM 29.0842 -81.1936 276° West 104 120 1,900  Level Jacksonville Center
Wed 06:21:57 PM 29.1094 -81.2147 324° Northwest 109 125 1,900 -226 Level Jacksonville Center
Wed 06:23:04 PM 29.1319 -81.1858 48° Northeast 129 148 1,400 -207 Descending Jacksonville Center
Wed 06:23:53 PM 29.1400 -81.1547 73° East 118 136 1,500 -327 Climbing Jacksonville Center
Wed 06:24:54 PM 29.1519 -81.1261 64° Northeast 109 125 800 -446 Descending Jacksonville Center
Wed 06:25:54 PM 29.1642 -81.0925 67° East 107 123 600 157 Descending Jacksonville Center
Wed 06:26:49 PM 29.1783 -81.0683 56° Northeast 115 132 1,100 672 Climbing Jacksonville Center
Wed 06:27:50 PM 29.1800 -81.0303 87° East 113 130 1,900 443 Climbing Jacksonville Center
Wed 06:28:51 PM 29.1586 -81.0044 133° Southeast 119 137 2,000  Climbing Jacksonville Center
Wed 06:29:51 PM 29.1294 -81.0122 193° South 114 131 1,900  Descending Jacksonville Center
Wed 06:30:58 PM 29.1153 -81.0411 241° Southwest 97 112 2,000 47 Climbing Jacksonville Center
Wed 06:31:59 PM 29.1011 -81.0744 244° Southwest 109 125 2,000 -49 Level Jacksonville Center
Wed 06:33:00 PM 29.0914 -81.1081 252° West 105 121 1,900 -197 Descending Jacksonville Center
Wed 06:34:01 PM 29.0939 -81.1414 275° West 106 122 1,600 -198 Descending Jacksonville Center
Wed 06:35:01 PM 29.0964 -81.1722 275° West 102 117 1,500  Descending Jacksonville Center
Wed 06:36:02 PM 29.1031 -81.2006 285° West 101 116 1,600 49 Climbing Jacksonville Center
Wed 06:37:03 PM 29.1278 -81.1906 19° North 119 137 1,600  Level Jacksonville Center

Login

Don't have an account? Register now (free) for customized features, flight alerts, and more!